createdAt,value
2017-12-12T00:01:08.894Z,0
2017-12-12T00:02:17.580Z,0
2017-12-12T00:03:27.158Z,0
2017-12-12T00:04:35.848Z,0
2017-12-12T00:05:44.539Z,0
2017-12-12T00:06:53.765Z,0
2017-12-12T00:08:02.739Z,0
2017-12-12T00:09:11.723Z,0
2017-12-12T00:10:21.200Z,0
2017-12-12T00:11:30.403Z,0
2017-12-12T00:12:39.225Z,0
2017-12-12T00:13:48.428Z,0
2017-12-12T00:14:57.652Z,0
2017-12-12T00:16:06.867Z,0
2017-12-12T00:17:15.548Z,0
2017-12-12T00:18:24.789Z,0
2017-12-12T00:19:33.741Z,0
2017-12-12T00:20:42.721Z,0
2017-12-12T00:21:51.988Z,0
2017-12-12T00:23:01.040Z,0
2017-12-12T00:24:10.300Z,0
2017-12-12T00:25:19.513Z,0
2017-12-12T00:26:28.834Z,0
2017-12-12T00:27:37.789Z,0
2017-12-12T00:28:47.278Z,0
2017-12-12T00:29:55.987Z,0
2017-12-12T00:31:04.677Z,0
2017-12-12T00:32:13.617Z,0
2017-12-12T00:33:22.832Z,0
2017-12-12T00:34:32.041Z,0
2017-12-12T00:35:40.738Z,0
2017-12-12T00:36:50.034Z,0
2017-12-12T00:37:58.730Z,0
2017-12-12T00:39:07.693Z,0
2017-12-12T00:40:16.654Z,0
2017-12-12T00:41:25.879Z,0
2017-12-12T00:42:34.561Z,0
2017-12-12T00:43:43.769Z,0
2017-12-12T00:44:52.724Z,0
2017-12-12T00:46:01.669Z,0
2017-12-12T00:47:10.355Z,0
2017-12-12T00:48:19.839Z,0
2017-12-12T00:49:29.333Z,0
2017-12-12T00:50:38.561Z,0
2017-12-12T00:51:47.850Z,0
2017-12-12T00:52:57.362Z,0
2017-12-12T00:54:06.598Z,0
2017-12-12T00:55:15.594Z,0
2017-12-12T00:56:24.573Z,0
2017-12-12T00:57:33.278Z,0
2017-12-12T00:58:42.501Z,0
2017-12-12T00:59:51.728Z,0
2017-12-12T01:01:00.972Z,0
2017-12-12T01:02:10.182Z,0
2017-12-12T01:03:19.126Z,0
2017-12-12T01:04:28.889Z,0
2017-12-12T01:05:38.101Z,0
2017-12-12T01:06:46.794Z,0
2017-12-12T01:07:56.034Z,0
2017-12-12T01:09:05.006Z,0
2017-12-12T01:10:14.211Z,0
2017-12-12T01:11:22.905Z,0
2017-12-12T01:12:31.868Z,0
2017-12-12T01:13:40.821Z,0
2017-12-12T01:14:49.783Z,0
2017-12-12T01:15:58.735Z,0
2017-12-12T01:17:07.956Z,0
2017-12-12T01:18:17.451Z,0
2017-12-12T01:19:26.142Z,0
2017-12-12T01:20:35.352Z,0
2017-12-12T01:21:45.123Z,0
2017-12-12T01:22:53.819Z,0
2017-12-12T01:24:02.769Z,0
2017-12-12T01:25:11.769Z,0
2017-12-12T01:26:21.232Z,0
2017-12-12T01:27:30.028Z,0
2017-12-12T01:28:38.965Z,0
2017-12-12T01:29:48.510Z,0
2017-12-12T01:30:58.263Z,0
2017-12-12T01:32:07.211Z,0
2017-12-12T01:33:16.178Z,0
2017-12-12T01:34:25.386Z,0
2017-12-12T01:35:34.082Z,0
2017-12-12T01:36:42.770Z,0
2017-12-12T01:37:51.743Z,0
2017-12-12T01:39:01.211Z,0
2017-12-12T01:40:10.691Z,0
2017-12-12T01:41:19.684Z,0
2017-12-12T01:42:29.188Z,0
2017-12-12T01:43:38.148Z,0
2017-12-12T01:44:47.400Z,0
2017-12-12T01:45:56.609Z,0
2017-12-12T01:47:05.594Z,0
2017-12-12T01:48:15.078Z,0
2017-12-12T01:49:24.022Z,0
2017-12-12T01:50:33.239Z,0
2017-12-12T01:51:42.455Z,0
2017-12-12T01:52:51.454Z,0
2017-12-12T01:54:00.161Z,0
2017-12-12T01:55:09.401Z,0
2017-12-12T01:56:18.635Z,0
2017-12-12T01:57:27.853Z,0
2017-12-12T01:58:37.075Z,0
2017-12-12T01:59:46.275Z,0
2017-12-12T02:00:54.973Z,0
2017-12-12T02:02:03.921Z,0
2017-12-12T02:03:12.875Z,0
2017-12-12T02:04:21.874Z,0
2017-12-12T02:05:30.577Z,0
2017-12-12T02:06:39.781Z,0
2017-12-12T02:07:48.991Z,0
2017-12-12T02:08:58.496Z,0
2017-12-12T02:10:07.721Z,0
2017-12-12T02:11:17.087Z,0
2017-12-12T02:12:26.298Z,0
2017-12-12T02:13:35.243Z,0
2017-12-12T02:14:43.957Z,0
2017-12-12T02:15:53.715Z,0
2017-12-12T02:17:02.680Z,0
2017-12-12T02:18:11.889Z,0
2017-12-12T02:19:20.833Z,0
2017-12-12T02:20:29.520Z,0
2017-12-12T02:21:38.979Z,0
2017-12-12T02:22:47.934Z,0
2017-12-12T02:23:57.423Z,0
2017-12-12T02:25:06.901Z,0
2017-12-12T02:26:15.848Z,0
2017-12-12T02:27:24.794Z,0
2017-12-12T02:28:33.474Z,0
2017-12-12T02:29:42.687Z,0
2017-12-12T02:30:52.214Z,0
2017-12-12T02:32:01.697Z,0
2017-12-12T02:33:10.922Z,0
2017-12-12T02:34:20.130Z,0
2017-12-12T02:35:29.362Z,0
2017-12-12T02:36:38.055Z,0
2017-12-12T02:37:46.997Z,0
2017-12-12T02:38:56.454Z,0
2017-12-12T02:40:05.664Z,0
2017-12-12T02:41:14.361Z,0
2017-12-12T02:42:23.859Z,0
2017-12-12T02:43:33.068Z,0
2017-12-12T02:44:42.285Z,0
2017-12-12T02:45:51.527Z,0
2017-12-12T02:47:00.757Z,0
2017-12-12T02:48:09.976Z,0
2017-12-12T02:49:19.452Z,0
2017-12-12T02:50:28.388Z,0
2017-12-12T02:51:37.063Z,0
2017-12-12T02:52:46.011Z,0
2017-12-12T02:53:55.218Z,0
2017-12-12T02:55:05.668Z,0
2017-12-12T02:56:14.876Z,0
2017-12-12T02:57:23.838Z,0
2017-12-12T02:58:32.766Z,0
2017-12-12T02:59:41.995Z,0
2017-12-12T03:00:51.202Z,0
2017-12-12T03:02:00.429Z,0
2017-12-12T03:03:09.654Z,0
2017-12-12T03:04:18.343Z,0
2017-12-12T03:05:27.303Z,0
2017-12-12T03:06:36.524Z,0
2017-12-12T03:07:46.534Z,0
2017-12-12T03:08:55.499Z,0
2017-12-12T03:10:04.736Z,0
2017-12-12T03:11:13.957Z,0
2017-12-12T03:12:23.614Z,0
2017-12-12T03:13:32.553Z,0
2017-12-12T03:14:42.017Z,0
2017-12-12T03:15:50.698Z,0
2017-12-12T03:16:59.934Z,0
2017-12-12T03:18:08.902Z,0
2017-12-12T03:19:18.137Z,0
2017-12-12T03:20:27.084Z,0
2017-12-12T03:21:36.080Z,0
2017-12-12T03:22:45.046Z,0
2017-12-12T03:23:53.998Z,0
2017-12-12T03:25:02.953Z,0
2017-12-12T03:26:12.150Z,0
2017-12-12T03:27:21.365Z,0
2017-12-12T03:28:30.576Z,0
2017-12-12T03:29:39.537Z,0
2017-12-12T03:30:49.026Z,0
2017-12-12T03:31:58.251Z,0
2017-12-12T03:33:07.483Z,0
2017-12-12T03:34:16.691Z,0
2017-12-12T03:35:25.911Z,0
2017-12-12T03:36:35.827Z,0
2017-12-12T03:37:45.320Z,0
2017-12-12T03:38:54.529Z,0
2017-12-12T03:40:03.733Z,0
2017-12-12T03:41:12.946Z,0
2017-12-12T03:42:22.148Z,0
2017-12-12T03:43:31.087Z,0
2017-12-12T03:44:40.301Z,0
2017-12-12T03:45:48.992Z,0
2017-12-12T03:46:57.955Z,0
2017-12-12T03:48:06.920Z,0
2017-12-12T03:49:15.608Z,0
2017-12-12T03:50:24.552Z,0
2017-12-12T03:51:33.242Z,0
2017-12-12T03:52:42.457Z,0
2017-12-12T03:53:51.662Z,0
2017-12-12T03:55:00.606Z,0
2017-12-12T03:56:09.550Z,0
2017-12-12T03:57:19.023Z,0
2017-12-12T03:58:28.237Z,0
2017-12-12T03:59:36.941Z,0
2017-12-12T04:00:46.166Z,0
2017-12-12T04:01:55.370Z,0
2017-12-12T04:03:04.593Z,0
2017-12-12T04:04:14.061Z,0
2017-12-12T04:05:23.526Z,0
2017-12-12T04:06:32.496Z,0
2017-12-12T04:07:41.730Z,0
2017-12-12T04:08:50.681Z,0
2017-12-12T04:09:59.928Z,0
2017-12-12T04:11:09.674Z,0
2017-12-12T04:12:18.634Z,0
2017-12-12T04:13:27.636Z,0
2017-12-12T04:14:36.860Z,0
2017-12-12T04:15:46.330Z,0
2017-12-12T04:16:55.289Z,0
2017-12-12T04:18:04.758Z,0
2017-12-12T04:19:14.227Z,0
2017-12-12T04:20:23.179Z,0
2017-12-12T04:21:32.424Z,0
2017-12-12T04:22:41.379Z,0
2017-12-12T04:23:50.850Z,0
2017-12-12T04:24:59.804Z,0
2017-12-12T04:26:09.293Z,0
2017-12-12T04:27:18.505Z,0
2017-12-12T04:28:27.455Z,0
2017-12-12T04:29:36.699Z,0
2017-12-12T04:30:46.186Z,0
2017-12-12T04:31:55.148Z,0
2017-12-12T04:33:04.380Z,0
2017-12-12T04:34:13.381Z,0
2017-12-12T04:35:22.359Z,0
2017-12-12T04:36:31.324Z,0
2017-12-12T04:37:41.071Z,0
2017-12-12T04:38:50.042Z,0
2017-12-12T04:39:58.995Z,0
2017-12-12T04:41:09.007Z,0
2017-12-12T04:42:18.184Z,0
2017-12-12T04:43:27.133Z,0
2017-12-12T04:44:36.602Z,0
2017-12-12T04:45:45.808Z,0
2017-12-12T04:46:54.763Z,0
2017-12-12T04:48:03.960Z,0
2017-12-12T04:49:13.164Z,0
2017-12-12T04:50:22.643Z,0
2017-12-12T04:51:32.189Z,0
2017-12-12T04:52:41.193Z,0
2017-12-12T04:53:50.406Z,0
2017-12-12T04:55:00.140Z,0
2017-12-12T04:56:09.623Z,0
2017-12-12T04:57:18.844Z,0
2017-12-12T04:58:27.580Z,0
2017-12-12T04:59:36.531Z,0
2017-12-12T05:00:46.049Z,0
2017-12-12T05:01:55.323Z,0
2017-12-12T05:03:04.275Z,0
2017-12-12T05:04:13.220Z,0
2017-12-12T05:05:22.426Z,0
2017-12-12T05:06:31.895Z,0
2017-12-12T05:07:41.107Z,0
2017-12-12T05:08:49.776Z,0
2017-12-12T05:09:59.250Z,0
2017-12-12T05:11:08.720Z,0
2017-12-12T05:12:17.668Z,0
2017-12-12T05:13:27.153Z,0
2017-12-12T05:14:36.104Z,0
2017-12-12T05:15:45.316Z,0
2017-12-12T05:16:54.001Z,0
2017-12-12T05:18:03.221Z,0
2017-12-12T05:19:12.446Z,0
2017-12-12T05:20:21.412Z,0
2017-12-12T05:21:30.642Z,0
2017-12-12T05:22:39.886Z,0
2017-12-12T05:23:48.930Z,0
2017-12-12T05:24:57.880Z,0
2017-12-12T05:26:07.090Z,0
2017-12-12T05:27:16.440Z,0
2017-12-12T05:28:25.954Z,0
2017-12-12T05:29:35.441Z,0
2017-12-12T05:30:45.180Z,0
2017-12-12T05:31:54.392Z,0
2017-12-12T05:33:03.354Z,0
2017-12-12T05:34:13.110Z,0
2017-12-12T05:35:22.321Z,0
2017-12-12T05:36:31.596Z,0
2017-12-12T05:37:40.551Z,0
2017-12-12T05:38:49.495Z,0
2017-12-12T05:39:58.186Z,0
2017-12-12T05:41:07.127Z,0
2017-12-12T05:42:16.339Z,0
2017-12-12T05:43:25.530Z,0
2017-12-12T05:44:35.257Z,0
2017-12-12T05:45:44.475Z,0
2017-12-12T05:46:53.957Z,0
2017-12-12T05:48:02.658Z,0
2017-12-12T05:49:11.861Z,0
2017-12-12T05:50:21.603Z,0
2017-12-12T05:51:30.554Z,0
2017-12-12T05:52:40.058Z,0
2017-12-12T05:53:49.007Z,0
2017-12-12T05:54:58.240Z,0
2017-12-12T05:56:07.200Z,0
2017-12-12T05:57:16.153Z,0
2017-12-12T05:58:25.367Z,0
2017-12-12T05:59:34.588Z,0
2017-12-12T06:00:43.799Z,0
2017-12-12T06:01:52.500Z,0
2017-12-12T06:03:01.739Z,0
2017-12-12T06:04:10.950Z,0
2017-12-12T06:05:19.950Z,0
2017-12-12T06:06:28.980Z,0
2017-12-12T06:07:38.211Z,0
2017-12-12T06:08:46.889Z,0
2017-12-12T06:09:56.143Z,0
2017-12-12T06:11:05.112Z,0
2017-12-12T06:12:13.796Z,0
2017-12-12T06:13:23.036Z,0
2017-12-12T06:14:32.290Z,0
2017-12-12T06:15:41.507Z,0
2017-12-12T06:16:51.193Z,0
2017-12-12T06:18:00.419Z,0
2017-12-12T06:19:09.625Z,0
2017-12-12T06:20:19.369Z,0
2017-12-12T06:21:28.325Z,0
2017-12-12T06:22:37.536Z,0
2017-12-12T06:23:47.079Z,0
2017-12-12T06:24:56.312Z,0
2017-12-12T06:28:37.620Z,0
2017-12-12T06:32:18.924Z,0
2017-12-12T06:33:28.436Z,0
2017-12-12T06:34:37.942Z,0
2017-12-12T06:38:20.197Z,0
2017-12-12T06:42:01.768Z,0
2017-12-12T06:43:10.990Z,0
2017-12-12T06:44:20.238Z,0
2017-12-12T06:45:29.218Z,0
2017-12-12T06:46:38.706Z,0
2017-12-12T06:47:47.426Z,0
2017-12-12T06:48:56.373Z,0
2017-12-12T06:50:05.861Z,0
2017-12-12T06:51:15.090Z,0
2017-12-12T06:52:24.304Z,0
2017-12-12T06:53:33.790Z,0
2017-12-12T06:54:42.860Z,0
2017-12-12T06:55:52.091Z,0
2017-12-12T06:57:01.565Z,0
2017-12-12T06:58:10.780Z,0
2017-12-12T06:59:20.258Z,0
2017-12-12T07:00:29.259Z,0
2017-12-12T07:01:38.207Z,0
2017-12-12T07:02:47.679Z,0
2017-12-12T07:03:57.179Z,0
2017-12-12T07:05:06.430Z,0
2017-12-12T07:06:15.109Z,0
2017-12-12T07:07:24.094Z,0
2017-12-12T07:08:33.074Z,0
2017-12-12T07:09:42.297Z,0
2017-12-12T07:10:51.568Z,0
2017-12-12T07:12:00.785Z,0
2017-12-12T07:13:10.278Z,0
2017-12-12T07:14:19.232Z,0
2017-12-12T07:15:27.930Z,0
2017-12-12T07:16:37.402Z,0
2017-12-12T07:17:46.103Z,0
2017-12-12T07:18:55.093Z,0
2017-12-12T07:20:04.562Z,0
2017-12-12T07:21:13.528Z,0
2017-12-12T07:22:22.227Z,0
2017-12-12T07:23:31.207Z,0
2017-12-12T07:24:40.152Z,0
2017-12-12T07:25:49.116Z,0
2017-12-12T07:26:58.649Z,0
2017-12-12T07:28:08.140Z,0
2017-12-12T07:29:17.352Z,0
2017-12-12T07:30:26.585Z,0
2017-12-12T07:31:35.800Z,0
2017-12-12T07:32:44.765Z,0
2017-12-12T07:33:53.992Z,0
2017-12-12T07:35:02.953Z,0
2017-12-12T07:36:12.175Z,0
2017-12-12T07:37:21.702Z,0
2017-12-12T07:38:30.407Z,0
2017-12-12T07:39:39.388Z,0
2017-12-12T07:40:48.349Z,0
2017-12-12T07:41:57.056Z,0
2017-12-12T07:43:06.286Z,0
2017-12-12T07:44:15.249Z,0
2017-12-12T07:45:24.216Z,0
2017-12-12T07:46:33.441Z,0
2017-12-12T07:47:42.678Z,0
2017-12-12T07:48:51.641Z,0
2017-12-12T07:50:00.868Z,0
2017-12-12T07:51:09.584Z,0
2017-12-12T07:52:18.549Z,0
2017-12-12T07:53:27.800Z,0
2017-12-12T07:54:37.297Z,0
2017-12-12T07:55:46.269Z,5
2017-12-12T07:56:54.969Z,5
2017-12-12T07:58:04.196Z,5
2017-12-12T07:59:13.428Z,5
2017-12-12T08:00:22.930Z,5
2017-12-12T08:01:31.911Z,5
2017-12-12T08:02:41.401Z,5
2017-12-12T08:03:50.627Z,5
2017-12-12T08:04:59.886Z,5
2017-12-12T08:06:08.852Z,5
2017-12-12T08:07:18.112Z,5
2017-12-12T08:08:27.076Z,5
2017-12-12T08:09:36.303Z,5
2017-12-12T08:10:45.800Z,5
2017-12-12T08:11:54.493Z,5
2017-12-12T08:13:03.779Z,5
2017-12-12T08:14:13.280Z,5
2017-12-12T08:15:22.594Z,5
2017-12-12T08:16:31.537Z,5
2017-12-12T08:17:40.485Z,5
2017-12-12T08:18:49.468Z,5
2017-12-12T08:19:58.183Z,5
2017-12-12T08:21:07.420Z,5
2017-12-12T08:22:16.381Z,5
2017-12-12T08:23:25.355Z,5
2017-12-12T08:24:34.048Z,5
2017-12-12T08:25:43.551Z,5
2017-12-12T08:26:52.606Z,5
2017-12-12T08:28:01.883Z,5
2017-12-12T08:29:11.114Z,5
2017-12-12T08:30:20.585Z,5
2017-12-12T08:31:29.597Z,5
2017-12-12T08:32:38.605Z,5
2017-12-12T08:33:47.893Z,5
2017-12-12T08:34:57.136Z,5
2017-12-12T08:36:06.665Z,5
2017-12-12T08:37:16.191Z,5
2017-12-12T08:38:24.889Z,5
2017-12-12T08:39:34.149Z,5
2017-12-12T08:40:43.634Z,10
2017-12-12T08:41:52.613Z,10
2017-12-12T08:43:01.596Z,10
2017-12-12T08:44:11.144Z,10
2017-12-12T08:45:20.630Z,10
2017-12-12T08:46:29.615Z,10
2017-12-12T08:47:38.852Z,5
2017-12-12T08:48:48.091Z,10
2017-12-12T08:49:57.068Z,5
2017-12-12T08:51:05.825Z,5
2017-12-12T08:52:14.525Z,5
2017-12-12T08:53:24.108Z,10
2017-12-12T08:54:33.073Z,5
2017-12-12T08:55:42.319Z,5
2017-12-12T08:56:51.588Z,5
2017-12-12T08:58:00.814Z,5
2017-12-12T08:59:09.522Z,5
2017-12-12T09:00:18.248Z,5
2017-12-12T09:01:28.026Z,5
2017-12-12T09:02:36.994Z,5
2017-12-12T09:03:46.270Z,5
2017-12-12T09:04:55.500Z,10
2017-12-12T09:06:04.751Z,5
2017-12-12T09:07:14.243Z,5
2017-12-12T09:08:23.491Z,5
2017-12-12T09:09:32.707Z,5
2017-12-12T09:10:41.404Z,5
2017-12-12T09:11:51.170Z,10
2017-12-12T09:13:00.146Z,10
2017-12-12T09:14:09.418Z,10
2017-12-12T09:15:18.892Z,10
2017-12-12T09:16:27.844Z,10
2017-12-12T09:17:36.568Z,15
2017-12-12T09:18:45.527Z,10
2017-12-12T09:19:55.029Z,15
2017-12-12T09:21:04.293Z,10
2017-12-12T09:22:13.090Z,15
2017-12-12T09:23:22.573Z,15
2017-12-12T09:24:31.273Z,10
2017-12-12T09:25:41.042Z,10
2017-12-12T09:26:49.758Z,10
2017-12-12T09:27:59.260Z,10
2017-12-12T09:29:08.736Z,10
2017-12-12T09:30:18.226Z,15
2017-12-12T09:31:27.186Z,10
2017-12-12T09:32:36.687Z,10
2017-12-12T09:33:45.696Z,15
2017-12-12T09:34:54.946Z,20
2017-12-12T09:36:03.910Z,15
2017-12-12T09:37:12.884Z,15
2017-12-12T09:38:21.582Z,15
2017-12-12T09:39:31.071Z,10
2017-12-12T09:40:40.555Z,15
2017-12-12T09:41:49.795Z,15
2017-12-12T09:42:58.771Z,10
2017-12-12T09:44:07.991Z,5
2017-12-12T09:45:17.216Z,5
2017-12-12T09:46:26.186Z,5
2017-12-12T09:47:34.908Z,5
2017-12-12T09:48:43.877Z,5
2017-12-12T09:49:53.154Z,10
2017-12-12T09:51:02.125Z,10
2017-12-12T09:52:11.623Z,10
2017-12-12T09:53:20.859Z,10
2017-12-12T09:54:29.825Z,20
2017-12-12T09:55:39.067Z,10
2017-12-12T09:56:48.563Z,10
2017-12-12T09:57:57.277Z,10
2017-12-12T09:59:06.556Z,15
2017-12-12T10:00:16.032Z,15
2017-12-12T10:01:25.008Z,20
2017-12-12T10:02:33.979Z,20
2017-12-12T10:03:43.240Z,15
2017-12-12T10:04:52.200Z,15
2017-12-12T10:06:00.901Z,15
2017-12-12T10:07:10.124Z,15
2017-12-12T10:08:19.357Z,15
2017-12-12T10:09:28.604Z,20
2017-12-12T10:10:38.085Z,20
2017-12-12T10:11:47.301Z,20
2017-12-12T10:12:56.257Z,20
2017-12-12T10:14:05.472Z,20
2017-12-12T10:15:14.948Z,25
2017-12-12T10:16:24.185Z,20
2017-12-12T10:17:33.689Z,20
2017-12-12T10:18:42.907Z,20
2017-12-12T10:19:51.875Z,20
2017-12-12T10:21:01.098Z,15
2017-12-12T10:22:10.065Z,15
2017-12-12T10:23:19.551Z,20
2017-12-12T10:24:28.526Z,20
2017-12-12T10:25:37.748Z,20
2017-12-12T10:26:46.965Z,20
2017-12-12T10:27:56.722Z,20
2017-12-12T10:29:06.227Z,20
2017-12-12T10:30:15.182Z,25
2017-12-12T10:31:24.133Z,25
2017-12-12T10:32:33.130Z,30
2017-12-12T10:33:42.403Z,35
2017-12-12T10:34:51.631Z,35
2017-12-12T10:36:00.340Z,40
2017-12-12T10:37:09.556Z,35
2017-12-12T10:38:18.581Z,35
2017-12-12T10:39:27.298Z,30
2017-12-12T10:40:36.311Z,25
2017-12-12T10:41:45.545Z,25
2017-12-12T10:42:54.792Z,25
2017-12-12T10:44:03.757Z,20
2017-12-12T10:45:12.958Z,20
2017-12-12T10:46:22.177Z,20
2017-12-12T10:47:31.942Z,20
2017-12-12T10:48:40.755Z,15
2017-12-12T10:49:49.980Z,15
2017-12-12T10:50:59.612Z,15
2017-12-12T10:52:08.527Z,10
2017-12-12T10:53:17.494Z,10
2017-12-12T10:54:26.473Z,10
2017-12-12T10:55:35.436Z,10
2017-12-12T10:56:44.144Z,10
2017-12-12T10:57:53.358Z,10
2017-12-12T10:59:02.339Z,10
2017-12-12T11:00:11.839Z,10
2017-12-12T11:01:21.596Z,5
2017-12-12T11:02:30.566Z,5
2017-12-12T11:03:40.068Z,5
2017-12-12T11:04:49.540Z,10
2017-12-12T11:05:58.243Z,10
2017-12-12T11:07:07.206Z,10
2017-12-12T11:08:15.932Z,10
2017-12-12T11:09:24.896Z,10
2017-12-12T11:10:33.604Z,15
2017-12-12T11:11:42.825Z,15
2017-12-12T11:12:52.319Z,15
2017-12-12T11:14:01.858Z,15
2017-12-12T11:15:11.412Z,15
2017-12-12T11:16:20.372Z,15
2017-12-12T11:17:29.594Z,15
2017-12-12T11:18:39.069Z,15
2017-12-12T11:19:48.838Z,15
2017-12-12T11:20:58.072Z,15
2017-12-12T11:22:07.316Z,20
2017-12-12T11:23:16.549Z,25
2017-12-12T11:24:25.528Z,25
2017-12-12T11:25:34.238Z,15
2017-12-12T11:26:43.896Z,15
2017-12-12T11:27:53.397Z,15
2017-12-12T11:29:02.403Z,20
2017-12-12T11:30:11.657Z,20
2017-12-12T11:31:21.141Z,20
2017-12-12T11:32:30.636Z,15
2017-12-12T11:33:39.880Z,20
2017-12-12T11:34:49.374Z,20
2017-12-12T11:35:58.890Z,20
2017-12-12T11:37:08.386Z,20
2017-12-12T11:38:17.350Z,20
2017-12-12T11:39:26.062Z,20
2017-12-12T11:40:35.029Z,25
2017-12-12T11:41:44.508Z,25
2017-12-12T11:42:53.503Z,20
2017-12-12T11:44:02.748Z,25
2017-12-12T11:45:11.971Z,25
2017-12-12T11:46:21.480Z,20
2017-12-12T11:47:30.706Z,20
2017-12-12T11:48:40.462Z,15
2017-12-12T11:49:49.957Z,15
2017-12-12T11:50:59.194Z,20
2017-12-12T11:52:08.245Z,20
2017-12-12T11:53:17.257Z,20
2017-12-12T11:54:25.994Z,20
2017-12-12T11:55:34.973Z,20
2017-12-12T11:56:44.464Z,20
2017-12-12T11:57:53.691Z,20
2017-12-12T11:59:03.167Z,20
2017-12-12T12:00:12.115Z,20
2017-12-12T12:01:21.333Z,20
2017-12-12T12:02:30.617Z,20
2017-12-12T12:03:39.844Z,20
2017-12-12T12:04:49.597Z,15
2017-12-12T12:05:59.084Z,15
2017-12-12T12:07:08.621Z,20
2017-12-12T12:08:17.588Z,20
2017-12-12T12:09:26.551Z,20
2017-12-12T12:10:35.841Z,20
2017-12-12T12:11:45.076Z,25
2017-12-12T12:12:54.038Z,20
2017-12-12T12:14:03.089Z,20
2017-12-12T12:15:12.099Z,25
2017-12-12T12:16:21.093Z,25
2017-12-12T12:17:30.057Z,25
2017-12-12T12:18:39.031Z,20
2017-12-12T12:19:48.073Z,20
2017-12-12T12:20:57.318Z,20
2017-12-12T12:22:07.220Z,15
2017-12-12T12:23:16.436Z,15
2017-12-12T12:24:25.396Z,10
2017-12-12T12:25:34.609Z,10
2017-12-12T12:26:43.578Z,10
2017-12-12T12:27:52.537Z,15
2017-12-12T12:29:01.756Z,15
2017-12-12T12:30:11.225Z,15
2017-12-12T12:31:19.946Z,20
2017-12-12T12:32:28.897Z,15
2017-12-12T12:33:38.113Z,15
2017-12-12T12:34:46.813Z,10
2017-12-12T12:35:56.061Z,15
2017-12-12T12:37:04.797Z,15
2017-12-12T12:38:14.019Z,10
2017-12-12T12:39:23.507Z,10
2017-12-12T12:40:32.715Z,10
2017-12-12T12:41:41.699Z,10
2017-12-12T12:42:50.691Z,10
2017-12-12T12:43:59.645Z,10
2017-12-12T12:45:08.862Z,10
2017-12-12T12:46:17.826Z,10
2017-12-12T12:47:27.044Z,10
2017-12-12T12:48:36.259Z,10
2017-12-12T12:49:45.540Z,10
2017-12-12T12:50:55.020Z,10
2017-12-12T12:52:03.718Z,10
2017-12-12T12:53:13.027Z,10
2017-12-12T12:54:22.787Z,10
2017-12-12T12:55:32.550Z,10
2017-12-12T12:56:41.507Z,10
2017-12-12T12:57:51.266Z,10
2017-12-12T12:59:00.260Z,5
2017-12-12T13:00:09.483Z,5
2017-12-12T13:01:18.694Z,5
2017-12-12T13:02:27.936Z,5
2017-12-12T13:03:37.156Z,5
2017-12-12T13:04:46.681Z,5
2017-12-12T13:05:55.892Z,0
2017-12-12T13:07:05.365Z,0
2017-12-12T13:08:14.606Z,5
2017-12-12T13:09:24.077Z,5
2017-12-12T13:10:33.050Z,5
2017-12-12T13:11:42.275Z,5
2017-12-12T13:12:50.992Z,10
2017-12-12T13:14:00.211Z,10
2017-12-12T13:15:09.442Z,5
2017-12-12T13:16:18.924Z,10
2017-12-12T13:17:27.631Z,10
2017-12-12T13:18:36.337Z,10
2017-12-12T13:19:45.656Z,10
2017-12-12T13:20:54.605Z,10
2017-12-12T13:22:03.840Z,10
2017-12-12T13:23:12.823Z,10
2017-12-12T13:24:22.018Z,15
2017-12-12T13:25:31.246Z,10
2017-12-12T13:26:40.736Z,10
2017-12-12T13:27:49.960Z,10
2017-12-12T13:28:59.168Z,10
2017-12-12T13:30:08.131Z,10
2017-12-12T13:31:17.163Z,10
2017-12-12T13:32:26.691Z,10
2017-12-12T13:33:36.219Z,10
2017-12-12T13:34:45.190Z,5
2017-12-12T13:35:54.962Z,5
2017-12-12T13:37:04.188Z,10
2017-12-12T13:38:13.402Z,10
2017-12-12T13:39:22.418Z,10
2017-12-12T13:40:31.513Z,10
2017-12-12T13:41:40.752Z,10
2017-12-12T13:42:49.990Z,10
2017-12-12T13:43:58.966Z,5
2017-12-12T13:45:08.444Z,5
2017-12-12T13:46:17.404Z,5
2017-12-12T13:47:26.651Z,5
2017-12-12T13:48:35.868Z,5
2017-12-12T13:49:44.605Z,5
2017-12-12T13:50:53.296Z,5
2017-12-12T13:52:02.256Z,5
2017-12-12T13:53:11.480Z,5
2017-12-12T13:54:20.497Z,5
2017-12-12T13:55:29.475Z,5
2017-12-12T13:56:38.705Z,5
2017-12-12T13:57:47.935Z,5
2017-12-12T13:58:57.422Z,5
2017-12-12T14:00:06.366Z,5
2017-12-12T14:01:15.325Z,5
2017-12-12T14:02:25.077Z,5
2017-12-12T14:03:34.290Z,5
2017-12-12T14:04:43.256Z,5
2017-12-12T14:05:52.488Z,5
2017-12-12T14:07:01.188Z,5
2017-12-12T14:08:10.706Z,5
2017-12-12T14:09:19.403Z,5
2017-12-12T14:10:28.622Z,5
2017-12-12T14:11:37.566Z,5
2017-12-12T14:12:46.528Z,5
2017-12-12T14:13:55.252Z,5
2017-12-12T14:15:03.940Z,5
2017-12-12T14:16:13.168Z,5
2017-12-12T14:17:22.799Z,5
2017-12-12T14:18:31.763Z,5
2017-12-12T14:19:41.253Z,5
2017-12-12T14:20:50.474Z,5
2017-12-12T14:21:59.764Z,5
2017-12-12T14:23:09.256Z,5
2017-12-12T14:24:18.761Z,0
2017-12-12T14:25:27.968Z,0
2017-12-12T14:26:37.182Z,0
2017-12-12T14:27:45.871Z,0
2017-12-12T14:28:54.846Z,5
2017-12-12T14:30:04.082Z,0
2017-12-12T14:31:13.319Z,5
2017-12-12T14:32:22.273Z,5
2017-12-12T14:33:31.495Z,5
2017-12-12T14:34:40.441Z,5
2017-12-12T14:35:49.657Z,5
2017-12-12T14:36:58.883Z,0
2017-12-12T14:38:08.123Z,0
2017-12-12T14:39:17.098Z,0
2017-12-12T14:40:26.349Z,0
2017-12-12T14:41:35.054Z,0
2017-12-12T14:42:44.282Z,0
2017-12-12T14:43:53.523Z,0
2017-12-12T14:45:02.226Z,0
2017-12-12T14:46:11.745Z,0
2017-12-12T14:47:20.993Z,0
2017-12-12T14:48:30.494Z,0
2017-12-12T14:49:39.938Z,0
2017-12-12T14:50:49.578Z,0
2017-12-12T14:51:59.063Z,0
2017-12-12T14:53:08.022Z,0
2017-12-12T14:54:16.976Z,0
2017-12-12T14:55:25.942Z,0
2017-12-12T14:56:34.942Z,0
2017-12-12T14:57:43.952Z,0
2017-12-12T14:58:52.900Z,0
2017-12-12T15:00:01.924Z,0
2017-12-12T15:01:10.898Z,0
2017-12-12T15:02:20.120Z,0
2017-12-12T15:03:29.076Z,0
2017-12-12T15:04:38.293Z,0
2017-12-12T15:05:47.544Z,0
2017-12-12T15:06:56.780Z,0
2017-12-12T15:08:06.012Z,0
2017-12-12T15:09:15.540Z,0
2017-12-12T15:10:25.286Z,0
2017-12-12T15:11:34.490Z,0
2017-12-12T15:12:43.463Z,0
2017-12-12T15:13:52.433Z,0
2017-12-12T15:15:01.403Z,0
2017-12-12T15:16:10.939Z,0
2017-12-12T15:17:20.197Z,0
2017-12-12T15:18:30.156Z,0
2017-12-12T15:19:39.119Z,0
2017-12-12T15:20:48.139Z,0
2017-12-12T15:21:57.622Z,0
2017-12-12T15:23:06.839Z,0
2017-12-12T15:24:15.610Z,0
2017-12-12T15:25:24.849Z,0
2017-12-12T15:26:33.820Z,0
2017-12-12T15:27:43.553Z,0
2017-12-12T15:28:52.512Z,0
2017-12-12T15:30:01.459Z,0
2017-12-12T15:31:10.449Z,0
2017-12-12T15:32:19.659Z,0
2017-12-12T15:33:29.136Z,0
2017-12-12T15:34:38.091Z,0
2017-12-12T15:35:47.042Z,0
2017-12-12T15:36:56.515Z,0
2017-12-12T15:38:05.463Z,0
2017-12-12T15:39:14.712Z,0
2017-12-12T15:40:23.407Z,0
2017-12-12T15:41:32.364Z,0
2017-12-12T15:42:41.331Z,0
2017-12-12T15:43:50.039Z,0
2017-12-12T15:44:59.003Z,0
2017-12-12T15:46:08.480Z,0
2017-12-12T15:47:17.702Z,0
2017-12-12T15:48:26.657Z,0
2017-12-12T15:49:35.672Z,0
2017-12-12T15:50:44.578Z,0
2017-12-12T15:51:54.085Z,0
2017-12-12T15:53:03.303Z,0
2017-12-12T15:54:12.567Z,0
2017-12-12T15:55:21.587Z,0
2017-12-12T15:56:30.852Z,0
2017-12-12T15:57:39.738Z,0
2017-12-12T15:58:48.944Z,0
2017-12-12T15:59:57.903Z,0
2017-12-12T16:01:07.125Z,0
2017-12-12T16:02:16.347Z,0
2017-12-12T16:03:25.851Z,0
2017-12-12T16:04:34.551Z,0
2017-12-12T16:05:43.505Z,0
2017-12-12T16:06:52.213Z,0
2017-12-12T16:08:01.172Z,0
2017-12-12T16:09:10.679Z,0
2017-12-12T16:10:19.632Z,0
2017-12-12T16:11:28.853Z,0
2017-12-12T16:12:38.093Z,0
2017-12-12T16:13:47.083Z,0
2017-12-12T16:14:56.301Z,0
2017-12-12T16:16:05.661Z,0
2017-12-12T16:17:15.179Z,0
2017-12-12T16:18:24.178Z,0
2017-12-12T16:19:33.163Z,0
2017-12-12T16:20:42.456Z,0
2017-12-12T16:21:51.705Z,0
2017-12-12T16:23:00.674Z,0
2017-12-12T16:24:09.912Z,0
2017-12-12T16:25:18.888Z,0
2017-12-12T16:26:28.133Z,0
2017-12-12T16:27:37.621Z,0
2017-12-12T16:28:46.588Z,0
2017-12-12T16:29:55.616Z,0
2017-12-12T16:31:04.828Z,0
2017-12-12T16:32:14.298Z,0
2017-12-12T16:33:23.253Z,0
2017-12-12T16:34:32.674Z,0
2017-12-12T16:35:42.173Z,0
2017-12-12T16:36:51.136Z,0
2017-12-12T16:38:00.099Z,0
2017-12-12T16:39:09.059Z,0
2017-12-12T16:40:18.284Z,0
2017-12-12T16:41:27.271Z,0
2017-12-12T16:42:35.980Z,0
2017-12-12T16:43:45.211Z,0
2017-12-12T16:44:54.166Z,0
2017-12-12T16:46:02.866Z,0
2017-12-12T16:47:11.815Z,0
2017-12-12T16:48:21.134Z,0
2017-12-12T16:49:29.828Z,0
2017-12-12T16:50:39.036Z,0
2017-12-12T16:51:48.271Z,0
2017-12-12T16:52:58.013Z,0
2017-12-12T16:54:07.508Z,0
2017-12-12T16:55:16.741Z,0
2017-12-12T16:56:26.484Z,0
2017-12-12T16:57:35.954Z,0
2017-12-12T16:58:45.471Z,0
2017-12-12T16:59:54.726Z,0
2017-12-12T17:01:04.317Z,0
2017-12-12T17:02:13.297Z,0
2017-12-12T17:03:21.977Z,0
2017-12-12T17:04:30.923Z,0